createdAt,value
2019-02-02T00:02:00.151Z,43.30
2019-02-02T00:04:29.666Z,43.23
2019-02-02T00:06:59.231Z,43.67
2019-02-02T00:09:28.665Z,46.07
2019-02-02T00:11:58.045Z,43.70
2019-02-02T00:14:27.400Z,45.13
2019-02-02T00:16:57.015Z,46.37
2019-02-02T00:19:26.372Z,44.33
2019-02-02T00:22:07.448Z,45.43
2019-02-02T00:24:37.076Z,44.30
2019-02-02T00:27:06.535Z,44.93
2019-02-02T00:29:35.943Z,46.17
2019-02-02T00:32:05.591Z,45.33
2019-02-02T00:34:35.325Z,47.23
2019-02-02T00:37:04.948Z,47.00
2019-02-02T00:39:34.376Z,46.53
2019-02-02T00:42:03.987Z,44.30
2019-02-02T00:44:33.372Z,45.70
2019-02-02T00:47:02.775Z,45.57
2019-02-02T00:49:32.233Z,44.83
2019-02-02T00:52:02.468Z,43.80
2019-02-02T00:54:31.851Z,45.43
2019-02-02T00:57:01.433Z,44.77
2019-02-02T00:59:44.122Z,42.07
2019-02-02T01:02:13.596Z,43.50
2019-02-02T01:04:45.446Z,43.97
2019-02-02T01:07:14.954Z,43.90
2019-02-02T01:09:45.211Z,45.63
2019-02-02T01:12:14.753Z,46.27
2019-02-02T01:14:44.210Z,45.07
2019-02-02T01:17:13.736Z,44.97
2019-02-02T01:19:43.086Z,44.73
2019-02-02T01:22:12.551Z,42.33
2019-02-02T01:24:42.154Z,44.03
2019-02-02T01:27:11.616Z,45.13
2019-02-02T01:29:40.972Z,44.57
2019-02-02T01:32:10.506Z,44.37
2019-02-02T01:34:39.946Z,43.27
2019-02-02T01:37:09.318Z,41.60
2019-02-02T01:39:38.674Z,44.00
2019-02-02T01:42:08.187Z,44.57
2019-02-02T01:44:37.607Z,44.37
2019-02-02T01:47:07.105Z,44.43
2019-02-02T01:49:36.491Z,44.83
2019-02-02T01:52:06.045Z,44.90
2019-02-02T01:54:38.321Z,47.53
2019-02-02T01:57:06.725Z,44.97
2019-02-02T01:59:36.119Z,45.07
2019-02-02T02:02:05.650Z,46.43
2019-02-02T02:04:48.106Z,44.47
2019-02-02T02:07:17.562Z,45.70
2019-02-02T02:09:47.036Z,44.50
2019-02-02T02:12:16.527Z,44.23
2019-02-02T02:14:47.879Z,45.73
2019-02-02T02:17:17.398Z,44.63
2019-02-02T02:19:46.854Z,44.70
2019-02-02T02:22:16.203Z,44.50
2019-02-02T02:24:45.739Z,46.67
2019-02-02T02:27:15.818Z,46.40
2019-02-02T02:29:45.295Z,46.50
2019-02-02T02:32:14.722Z,46.90
2019-02-02T02:34:44.183Z,46.43
2019-02-02T02:37:13.747Z,49.00
2019-02-02T02:39:43.145Z,49.43
2019-02-02T02:42:12.506Z,50.37
2019-02-02T02:44:42.038Z,50.00
2019-02-02T02:47:11.517Z,49.60
2019-02-02T02:49:40.926Z,52.03
2019-02-02T02:52:10.425Z,50.67
2019-02-02T02:54:39.951Z,51.00
2019-02-02T02:57:09.320Z,55.00
2019-02-02T02:59:58.114Z,52.23
2019-02-02T03:02:27.582Z,50.27
2019-02-02T03:04:57.134Z,51.63
2019-02-02T03:07:26.619Z,51.33
2019-02-02T03:10:10.818Z,50.77
2019-02-02T03:12:40.291Z,52.87
2019-02-02T03:15:12.534Z,52.33
2019-02-02T03:17:44.908Z,53.60
2019-02-02T03:20:15.666Z,52.87
2019-02-02T03:22:45.447Z,53.10
2019-02-02T03:25:25.877Z,53.40
2019-02-02T03:27:55.420Z,52.30
2019-02-02T03:30:24.891Z,52.30
2019-02-02T03:32:54.351Z,51.20
2019-02-02T03:35:24.621Z,51.27
2019-02-02T03:37:54.041Z,50.13
2019-02-02T03:40:24.524Z,49.07
2019-02-02T03:42:54.058Z,48.67
2019-02-02T03:45:24.516Z,48.67
2019-02-02T03:47:54.723Z,50.13
2019-02-02T03:50:24.641Z,50.87
2019-02-02T03:52:54.222Z,50.97
2019-02-02T03:55:23.696Z,48.23
2019-02-02T03:57:53.200Z,50.47
2019-02-02T04:00:23.088Z,49.30
2019-02-02T04:02:52.731Z,47.27
2019-02-02T04:05:26.309Z,46.33
2019-02-02T04:07:55.887Z,46.30
2019-02-02T04:10:25.346Z,44.97
2019-02-02T04:12:54.787Z,47.43
2019-02-02T04:15:24.327Z,45.33
2019-02-02T04:17:53.913Z,43.63
2019-02-02T04:20:23.857Z,41.50
2019-02-02T04:22:53.357Z,40.97
2019-02-02T04:25:42.143Z,40.20
2019-02-02T04:28:11.675Z,41.13
2019-02-02T04:30:41.154Z,41.87
2019-02-02T04:33:11.472Z,44.30
2019-02-02T04:35:40.886Z,44.97
2019-02-02T04:38:10.345Z,45.50
2019-02-02T04:40:39.771Z,44.73
2019-02-02T04:43:09.180Z,45.77
2019-02-02T04:45:38.698Z,47.00
2019-02-02T04:48:08.090Z,45.87
2019-02-02T04:50:37.526Z,46.87
2019-02-02T04:53:07.073Z,45.33
2019-02-02T04:55:39.236Z,47.13
2019-02-02T04:58:08.836Z,45.40
2019-02-02T05:00:38.275Z,46.63
2019-02-02T05:03:08.048Z,46.57
2019-02-02T05:05:37.408Z,47.70
2019-02-02T05:08:06.819Z,47.00
2019-02-02T05:10:36.257Z,48.97
2019-02-02T05:13:05.655Z,48.00
2019-02-02T05:15:35.339Z,46.23
2019-02-02T05:18:04.973Z,47.10
2019-02-02T05:20:34.422Z,48.50
2019-02-02T05:23:03.887Z,49.30
2019-02-02T05:25:33.243Z,48.53
2019-02-02T05:28:02.945Z,46.17
2019-02-02T05:30:32.517Z,45.97
2019-02-02T05:33:01.918Z,46.80
2019-02-02T05:35:31.349Z,47.37
2019-02-02T05:38:02.614Z,46.70
2019-02-02T05:40:31.987Z,48.50
2019-02-02T05:43:02.960Z,45.97
2019-02-02T05:45:32.479Z,47.00
2019-02-02T05:48:02.230Z,47.47
2019-02-02T05:50:31.658Z,47.30
2019-02-02T05:53:01.452Z,46.13
2019-02-02T05:55:30.879Z,47.80
2019-02-02T05:58:00.403Z,47.33
2019-02-02T06:00:38.429Z,45.57
2019-02-02T06:03:08.030Z,47.43
2019-02-02T06:05:37.613Z,45.67
2019-02-02T06:08:07.118Z,46.17
2019-02-02T06:10:36.656Z,45.57
2019-02-02T06:13:06.116Z,44.37
2019-02-02T06:15:36.072Z,47.53
2019-02-02T06:18:05.743Z,47.23
2019-02-02T06:20:35.207Z,47.03
2019-02-02T06:23:04.791Z,48.37
2019-02-02T06:25:34.330Z,48.30
2019-02-02T06:28:04.142Z,48.77
2019-02-02T06:30:33.699Z,47.93
2019-02-02T06:33:03.309Z,47.20
2019-02-02T06:35:32.852Z,45.20
2019-02-02T06:38:03.974Z,48.83
2019-02-02T06:40:33.543Z,49.10
2019-02-02T06:43:03.017Z,50.93
2019-02-02T06:45:45.224Z,49.97
2019-02-02T06:48:15.460Z,49.23
2019-02-02T06:50:44.862Z,49.63
2019-02-02T06:53:14.328Z,53.87
2019-02-02T06:55:44.181Z,53.67
2019-02-02T06:58:13.652Z,55.93
2019-02-02T07:00:43.752Z,57.90
2019-02-02T07:03:13.419Z,57.77
2019-02-02T07:05:42.922Z,57.67
2019-02-02T07:08:12.422Z,57.70
2019-02-02T07:10:41.903Z,59.00
2019-02-02T07:13:11.691Z,58.37
2019-02-02T07:15:41.182Z,59.83
2019-02-02T07:18:10.787Z,59.40
2019-02-02T07:20:40.328Z,58.20
2019-02-02T07:23:09.979Z,60.17
2019-02-02T07:25:42.670Z,59.43
2019-02-02T07:28:13.601Z,62.63
2019-02-02T07:30:43.075Z,64.17
2019-02-02T07:33:12.719Z,60.20
2019-02-02T07:35:42.429Z,61.90
2019-02-02T07:38:12.009Z,61.50
2019-02-02T07:40:41.395Z,62.33
2019-02-02T07:43:10.929Z,65.37
2019-02-02T07:45:40.362Z,63.07
2019-02-02T07:48:09.827Z,64.00
2019-02-02T07:50:39.213Z,63.40
2019-02-02T07:53:08.607Z,64.63
2019-02-02T07:55:37.996Z,64.97
2019-02-02T07:58:07.526Z,63.63
2019-02-02T08:00:41.525Z,64.07
2019-02-02T08:03:10.748Z,64.00
2019-02-02T08:05:40.178Z,61.80
2019-02-02T08:08:09.771Z,61.47
2019-02-02T08:10:39.208Z,61.97
2019-02-02T08:13:08.632Z,61.90
2019-02-02T08:15:38.150Z,61.33
2019-02-02T08:18:07.662Z,61.47
2019-02-02T08:20:37.122Z,61.53
2019-02-02T08:23:06.636Z,63.77
2019-02-02T08:25:36.031Z,63.07
2019-02-02T08:28:05.568Z,64.50
2019-02-02T08:30:36.229Z,67.83
2019-02-02T08:33:06.238Z,66.07
2019-02-02T08:35:37.438Z,67.73
2019-02-02T08:38:07.037Z,68.27
2019-02-02T08:40:36.884Z,66.77
2019-02-02T08:43:06.443Z,72.70
2019-02-02T08:45:35.948Z,68.87
2019-02-02T08:48:05.483Z,69.30
2019-02-02T08:50:36.709Z,68.80
2019-02-02T08:53:06.826Z,68.20
2019-02-02T08:55:36.444Z,69.57
2019-02-02T08:58:06.259Z,66.37
2019-02-02T09:00:35.880Z,68.67
2019-02-02T09:03:05.677Z,65.60
2019-02-02T09:05:35.273Z,65.97
2019-02-02T09:08:05.784Z,67.83
2019-02-02T09:10:35.352Z,68.07
2019-02-02T09:13:05.441Z,64.13
2019-02-02T09:15:35.098Z,64.23
2019-02-02T09:18:05.007Z,62.90
2019-02-02T09:20:35.094Z,62.13
2019-02-02T09:23:06.683Z,60.67
2019-02-02T09:25:35.965Z,60.03
2019-02-02T09:28:05.537Z,59.73
2019-02-02T09:30:36.401Z,57.73
2019-02-02T09:33:06.305Z,59.77
2019-02-02T09:35:35.895Z,56.47
2019-02-02T09:38:05.560Z,57.27
2019-02-02T09:40:35.181Z,56.90
2019-02-02T09:43:05.227Z,54.87
2019-02-02T09:45:34.692Z,52.60
2019-02-02T09:48:04.550Z,54.83
2019-02-02T09:50:33.991Z,54.70
2019-02-02T09:53:05.203Z,51.73
2019-02-02T09:55:34.634Z,51.60
2019-02-02T09:58:08.814Z,51.07
2019-02-02T10:00:38.978Z,52.13
2019-02-02T10:03:08.474Z,51.57
2019-02-02T10:05:38.029Z,52.50
2019-02-02T10:08:07.588Z,51.17
2019-02-02T10:10:37.138Z,49.40
2019-02-02T10:13:06.907Z,50.77
2019-02-02T10:15:36.607Z,50.43
2019-02-02T10:18:06.340Z,48.60
2019-02-02T10:20:36.098Z,47.97
2019-02-02T10:23:06.060Z,47.00
2019-02-02T10:25:37.003Z,49.23
2019-02-02T10:28:06.426Z,46.40
2019-02-02T10:30:38.772Z,47.43
2019-02-02T10:33:08.491Z,47.63
2019-02-02T10:35:37.968Z,47.13
2019-02-02T10:38:07.470Z,46.83
2019-02-02T10:40:37.197Z,46.80
2019-02-02T10:43:06.769Z,48.60
2019-02-02T10:45:36.376Z,48.20
2019-02-02T10:48:06.551Z,49.63
2019-02-02T10:50:36.095Z,48.27
2019-02-02T10:53:05.690Z,48.10
2019-02-02T10:55:35.798Z,49.53
2019-02-02T10:58:06.067Z,48.70
2019-02-02T11:00:38.002Z,46.40
2019-02-02T11:03:07.613Z,45.27
2019-02-02T11:05:37.179Z,44.40
2019-02-02T11:08:06.908Z,47.27
2019-02-02T11:10:36.503Z,44.07
2019-02-02T11:13:06.524Z,45.93
2019-02-02T11:15:36.213Z,44.87
2019-02-02T11:18:06.273Z,49.07
2019-02-02T11:20:37.313Z,47.10
2019-02-02T11:23:06.885Z,47.70
2019-02-02T11:25:36.532Z,47.53
2019-02-02T11:28:07.603Z,47.57
2019-02-02T11:30:37.143Z,48.70
2019-02-02T11:33:06.618Z,48.23
2019-02-02T11:35:36.055Z,46.40
2019-02-02T11:38:05.795Z,46.87
2019-02-02T11:40:35.861Z,48.57
2019-02-02T11:43:05.562Z,48.10
2019-02-02T11:45:35.075Z,48.10
2019-02-02T11:48:04.672Z,49.33
2019-02-02T11:50:34.072Z,48.10
2019-02-02T11:53:03.668Z,47.27
2019-02-02T11:55:33.164Z,46.60
2019-02-02T11:58:02.638Z,45.43
2019-02-02T12:00:40.312Z,47.23
2019-02-02T12:03:09.872Z,46.37
2019-02-02T12:05:39.437Z,45.97
2019-02-02T12:08:09.035Z,46.47
2019-02-02T12:10:38.475Z,46.27
2019-02-02T12:13:08.158Z,47.03
2019-02-02T12:15:37.608Z,48.87
2019-02-02T12:18:07.154Z,46.63
2019-02-02T12:20:36.691Z,46.30
2019-02-02T12:23:06.232Z,47.17
2019-02-02T12:25:35.730Z,46.43
2019-02-02T12:28:05.789Z,47.53
2019-02-02T12:30:35.612Z,47.43
2019-02-02T12:33:05.686Z,49.80
2019-02-02T12:35:35.338Z,49.13
2019-02-02T12:38:04.989Z,50.93
2019-02-02T12:40:34.557Z,48.73
2019-02-02T12:43:05.600Z,49.57
2019-02-02T12:45:38.077Z,49.00
2019-02-02T12:48:07.713Z,49.90
2019-02-02T12:50:37.242Z,50.57
2019-02-02T12:53:06.704Z,49.90
2019-02-02T12:55:36.142Z,51.70
2019-02-02T12:58:26.471Z,48.77
2019-02-02T13:00:58.907Z,48.17
2019-02-02T13:03:31.244Z,50.30
2019-02-02T13:06:01.007Z,51.87
2019-02-02T13:08:30.596Z,49.97
2019-02-02T13:11:00.054Z,49.37
2019-02-02T13:13:29.530Z,48.73
2019-02-02T13:15:58.999Z,49.33
2019-02-02T13:18:28.398Z,48.80
2019-02-02T13:20:57.931Z,50.40
2019-02-02T13:23:27.427Z,51.07
2019-02-02T13:26:04.967Z,49.97
2019-02-02T13:28:27.875Z,50.47
2019-02-02T13:30:57.287Z,52.33
2019-02-02T13:33:26.787Z,48.70
2019-02-02T13:35:56.267Z,49.83
2019-02-02T13:38:25.635Z,49.20
2019-02-02T13:40:55.155Z,52.83
2019-02-02T13:43:24.590Z,49.80
2019-02-02T13:45:54.063Z,48.87
2019-02-02T13:48:23.768Z,49.27
2019-02-02T13:50:53.311Z,51.40
2019-02-02T13:53:22.732Z,51.17
2019-02-02T13:55:52.127Z,50.03
2019-02-02T13:58:21.566Z,50.50
2019-02-02T14:00:51.686Z,50.60
2019-02-02T14:03:21.111Z,49.80
2019-02-02T14:05:50.569Z,50.53
2019-02-02T14:08:20.073Z,46.47
2019-02-02T14:10:49.711Z,47.30
2019-02-02T14:13:19.124Z,45.30
2019-02-02T14:15:48.658Z,46.27
2019-02-02T14:18:37.429Z,46.27
2019-02-02T14:21:07.812Z,43.50
2019-02-02T14:23:37.279Z,43.67
2019-02-02T14:26:06.891Z,44.03
2019-02-02T14:28:36.371Z,41.90
2019-02-02T14:31:05.899Z,42.03
2019-02-02T14:33:35.273Z,41.70
2019-02-02T14:36:05.095Z,41.53
2019-02-02T14:38:34.446Z,42.13
2019-02-02T14:41:04.253Z,41.03
2019-02-02T14:43:35.225Z,40.20
2019-02-02T14:46:04.816Z,41.67
2019-02-02T14:48:34.212Z,39.70
2019-02-02T14:51:03.680Z,40.67
2019-02-02T14:53:33.060Z,39.90
2019-02-02T14:56:02.555Z,40.60
2019-02-02T14:58:31.962Z,39.13
2019-02-02T15:01:01.433Z,40.17
2019-02-02T15:03:31.072Z,40.63
2019-02-02T15:06:00.514Z,40.70
2019-02-02T15:08:30.075Z,40.80
2019-02-02T15:11:02.658Z,40.70
2019-02-02T15:13:32.096Z,38.53
2019-02-02T15:16:01.580Z,40.20
2019-02-02T15:18:31.008Z,39.87
2019-02-02T15:21:00.476Z,39.70
2019-02-02T15:23:29.879Z,40.10
2019-02-02T15:26:00.858Z,39.97
2019-02-02T15:28:30.369Z,39.47
2019-02-02T15:30:59.890Z,38.77
2019-02-02T15:33:37.623Z,41.00
2019-02-02T15:36:00.519Z,42.43
2019-02-02T15:38:30.075Z,40.87
2019-02-02T15:40:59.818Z,41.80
2019-02-02T15:43:29.300Z,41.23
2019-02-02T15:45:58.880Z,40.50
2019-02-02T15:48:28.377Z,42.33
2019-02-02T15:50:58.095Z,40.93
2019-02-02T15:53:27.478Z,39.07
2019-02-02T15:55:57.060Z,38.67
2019-02-02T15:58:26.515Z,40.20
2019-02-02T16:00:55.980Z,39.73
2019-02-02T16:03:25.452Z,38.87
2019-02-02T16:05:54.841Z,40.53
2019-02-02T16:08:24.479Z,38.03
2019-02-02T16:10:53.974Z,40.70
2019-02-02T16:13:37.211Z,38.87
2019-02-02T16:16:09.837Z,41.43
2019-02-02T16:18:39.178Z,39.87
2019-02-02T16:21:08.594Z,38.77
2019-02-02T16:23:38.024Z,42.43
2019-02-02T16:26:07.638Z,41.70
2019-02-02T16:28:37.035Z,40.17
2019-02-02T16:31:06.577Z,40.47
2019-02-02T16:33:36.086Z,39.37
2019-02-02T16:36:05.531Z,41.70
2019-02-02T16:38:36.439Z,41.37
2019-02-02T16:41:06.040Z,39.70
2019-02-02T16:43:35.400Z,40.33
2019-02-02T16:46:05.772Z,40.20
2019-02-02T16:48:35.155Z,39.27
2019-02-02T16:51:04.623Z,40.40
2019-02-02T16:53:34.051Z,38.57
2019-02-02T16:56:03.665Z,40.33
2019-02-02T16:58:33.233Z,43.00
2019-02-02T17:01:02.776Z,41.20
2019-02-02T17:03:32.203Z,41.17
2019-02-02T17:06:01.688Z,42.87
2019-02-02T17:08:31.068Z,41.13
2019-02-02T17:11:00.675Z,42.57
2019-02-02T17:13:30.109Z,43.47
2019-02-02T17:15:59.644Z,41.90
2019-02-02T17:18:29.155Z,41.27
2019-02-02T17:20:58.624Z,42.73
2019-02-02T17:23:27.970Z,40.97
2019-02-02T17:25:57.748Z,42.53
2019-02-02T17:28:27.103Z,41.27
2019-02-02T17:30:57.353Z,42.57
2019-02-02T17:33:26.963Z,40.27
2019-02-02T17:35:56.686Z,42.33
2019-02-02T17:38:26.039Z,42.40
2019-02-02T17:40:55.487Z,41.50
2019-02-02T17:43:24.852Z,41.13
2019-02-02T17:45:54.310Z,42.67
2019-02-02T17:48:23.884Z,41.23
2019-02-02T17:50:53.484Z,40.23
2019-02-02T17:53:22.965Z,39.83
2019-02-02T17:55:52.365Z,40.37
2019-02-02T17:58:21.793Z,37.73
2019-02-02T18:00:52.975Z,38.93
2019-02-02T18:03:22.404Z,39.53
2019-02-02T18:05:51.986Z,38.63
2019-02-02T18:08:21.463Z,36.63
2019-02-02T18:10:52.404Z,36.10
2019-02-02T18:13:21.887Z,35.07
2019-02-02T18:15:51.290Z,35.37
2019-02-02T18:18:22.335Z,35.13
2019-02-02T18:20:51.755Z,33.23
2019-02-02T18:23:21.264Z,34.77
2019-02-02T18:25:50.737Z,34.13
2019-02-02T18:28:20.989Z,32.80
2019-02-02T18:30:50.647Z,32.57
2019-02-02T18:33:20.045Z,31.53
2019-02-02T18:35:49.800Z,30.17
2019-02-02T18:38:20.687Z,29.73
2019-02-02T18:40:51.774Z,30.67
2019-02-02T18:43:21.303Z,30.73
2019-02-02T18:45:52.489Z,30.47
2019-02-02T18:48:22.091Z,29.20
2019-02-02T18:50:51.610Z,29.03
2019-02-02T18:53:20.988Z,27.00
2019-02-02T18:55:53.455Z,27.90
2019-02-02T18:58:22.983Z,27.90
2019-02-02T19:00:54.471Z,27.33
2019-02-02T19:03:24.082Z,28.27
2019-02-02T19:05:53.666Z,26.80
2019-02-02T19:08:23.255Z,27.37
2019-02-02T19:10:52.617Z,25.90
2019-02-02T19:13:22.131Z,27.97
2019-02-02T19:15:51.593Z,25.90
2019-02-02T19:18:21.029Z,28.33
2019-02-02T19:20:53.030Z,25.87
2019-02-02T19:23:25.478Z,26.30
2019-02-02T19:25:53.599Z,25.10
2019-02-02T19:28:22.951Z,26.60
2019-02-02T19:30:53.624Z,26.17
2019-02-02T19:33:23.214Z,25.80
2019-02-02T19:35:52.688Z,24.07
2019-02-02T19:38:22.135Z,26.07
2019-02-02T19:40:53.304Z,24.87
2019-02-02T19:43:22.734Z,25.17
2019-02-02T19:45:53.717Z,26.60
2019-02-02T19:48:23.301Z,24.87
2019-02-02T19:50:52.903Z,26.20
2019-02-02T19:53:22.439Z,24.83
2019-02-02T19:55:51.851Z,23.77
2019-02-02T19:58:21.272Z,24.17
2019-02-02T20:00:50.751Z,24.50
2019-02-02T20:03:21.775Z,23.20
2019-02-02T20:05:51.387Z,23.50
2019-02-02T20:08:20.923Z,23.40
2019-02-02T20:10:50.436Z,23.30
2019-02-02T20:13:19.860Z,23.07
2019-02-02T20:15:49.317Z,24.53
2019-02-02T20:18:18.675Z,24.70
2019-02-02T20:20:48.191Z,23.60
2019-02-02T20:23:17.563Z,24.07
2019-02-02T20:25:47.095Z,25.93
2019-02-02T20:28:18.303Z,23.63
2019-02-02T20:30:47.711Z,23.63
2019-02-02T20:33:19.998Z,23.90
2019-02-02T20:35:48.624Z,23.27
2019-02-02T20:38:18.179Z,23.80
2019-02-02T20:40:47.698Z,23.13
2019-02-02T20:43:17.203Z,22.43
2019-02-02T20:45:46.672Z,23.43
2019-02-02T20:48:16.109Z,22.47
2019-02-02T20:50:45.585Z,22.20
2019-02-02T20:53:15.061Z,21.80
2019-02-02T20:55:45.319Z,22.37
2019-02-02T20:58:14.834Z,21.60
2019-02-02T21:00:44.383Z,21.90
2019-02-02T21:03:14.543Z,21.50
2019-02-02T21:05:52.001Z,22.07
2019-02-02T21:08:15.353Z,22.30
2019-02-02T21:10:46.290Z,20.83
2019-02-02T21:13:16.219Z,21.93
2019-02-02T21:15:49.828Z,22.00
2019-02-02T21:18:19.689Z,23.50
2019-02-02T21:20:49.228Z,24.27
2019-02-02T21:23:20.246Z,44.30
2019-02-02T21:25:49.748Z,24.53
2019-02-02T21:28:19.211Z,23.20
2019-02-02T21:30:49.091Z,23.13
2019-02-02T21:33:18.630Z,21.53
2019-02-02T21:35:48.925Z,22.60
2019-02-02T21:38:18.747Z,21.97
2019-02-02T21:40:48.236Z,21.27
2019-02-02T21:43:18.168Z,22.70
2019-02-02T21:45:47.536Z,22.20
2019-02-02T21:48:17.068Z,21.97
2019-02-02T21:50:46.416Z,23.57
2019-02-02T21:53:15.955Z,25.33
2019-02-02T21:55:45.460Z,23.57
2019-02-02T21:58:14.933Z,26.23
2019-02-02T22:00:44.474Z,25.27
2019-02-02T22:03:13.959Z,26.63
2019-02-02T22:05:43.387Z,26.33
2019-02-02T22:08:12.927Z,27.70
2019-02-02T22:10:42.734Z,27.53
2019-02-02T22:13:12.197Z,27.43
2019-02-02T22:15:41.638Z,27.60
2019-02-02T22:18:11.174Z,26.93
2019-02-02T22:20:40.703Z,28.27
2019-02-02T22:23:10.639Z,27.73
2019-02-02T22:25:40.167Z,28.27
2019-02-02T22:28:09.788Z,27.93
2019-02-02T22:30:39.167Z,28.20
2019-02-02T22:33:08.642Z,26.47
2019-02-02T22:35:38.248Z,27.80
2019-02-02T22:38:07.782Z,26.73
2019-02-02T22:40:37.334Z,27.00
2019-02-02T22:43:06.975Z,26.97
2019-02-02T22:45:37.980Z,24.80
2019-02-02T22:48:07.650Z,24.93
2019-02-02T22:50:49.790Z,26.23
2019-02-02T22:53:19.340Z,23.80
2019-02-02T22:55:48.810Z,24.43
2019-02-02T22:58:20.151Z,25.93
2019-02-02T23:01:04.269Z,24.13
2019-02-02T23:03:48.902Z,24.87
2019-02-02T23:06:39.227Z,25.50
2019-02-02T23:09:39.943Z,24.80
2019-02-02T23:12:42.426Z,24.63
2019-02-02T23:15:37.681Z,25.37
2019-02-02T23:18:07.291Z,23.80
2019-02-02T23:20:36.831Z,23.57
2019-02-02T23:23:06.339Z,24.63
2019-02-02T23:25:35.818Z,23.17
2019-02-02T23:28:05.529Z,23.63
2019-02-02T23:30:34.960Z,25.27
2019-02-02T23:33:04.479Z,24.53
2019-02-02T23:35:33.944Z,25.07
2019-02-02T23:38:03.568Z,24.37
2019-02-02T23:40:33.354Z,25.30
2019-02-02T23:43:02.800Z,26.33
2019-02-02T23:45:32.549Z,25.67
2019-02-02T23:48:03.624Z,25.80
2019-02-02T23:50:33.158Z,26.13
2019-02-02T23:53:03.002Z,25.37
2019-02-02T23:55:32.476Z,26.53
2019-02-02T23:58:01.971Z,26.63
